sensor_id;sensor_type;location;lat;lon;timestamp;P1;durP1;ratioP1;P2;durP2;ratioP2
35488;SDS011;21602;55.670;37.578;2022-09-03T00:10:56;2.03;;;0.90;;
35488;SDS011;21602;55.670;37.578;2022-09-03T00:13:37;2.97;;;1.00;;
35488;SDS011;21602;55.670;37.578;2022-09-03T00:16:08;1.73;;;0.90;;
35488;SDS011;21602;55.670;37.578;2022-09-03T00:18:42;3.13;;;1.50;;
35488;SDS011;21602;55.670;37.578;2022-09-03T00:21:15;3.67;;;0.95;;
35488;SDS011;21602;55.670;37.578;2022-09-03T00:23:44;1.00;;;0.80;;
35488;SDS011;21602;55.670;37.578;2022-09-03T00:26:15;1.85;;;0.80;;
35488;SDS011;21602;55.670;37.578;2022-09-03T00:28:53;1.92;;;0.90;;
35488;SDS011;21602;55.670;37.578;2022-09-03T00:31:27;1.38;;;0.98;;
35488;SDS011;21602;55.670;37.578;2022-09-03T00:33:59;1.63;;;1.05;;
35488;SDS011;21602;55.670;37.578;2022-09-03T00:36:36;1.67;;;0.90;;
35488;SDS011;21602;55.670;37.578;2022-09-03T00:39:10;1.00;;;0.90;;
35488;SDS011;21602;55.670;37.578;2022-09-03T00:41:50;1.15;;;0.77;;
35488;SDS011;21602;55.670;37.578;2022-09-03T00:47:29;0.88;;;0.68;;
35488;SDS011;21602;55.670;37.578;2022-09-03T01:09:50;1.88;;;1.05;;
35488;SDS011;21602;55.670;37.578;2022-09-03T01:12:21;0.77;;;0.75;;
35488;SDS011;21602;55.670;37.578;2022-09-03T01:18:06;1.73;;;0.73;;
35488;SDS011;21602;55.670;37.578;2022-09-03T01:42:32;1.42;;;1.25;;
35488;SDS011;21602;55.670;37.578;2022-09-03T01:47:50;3.10;;;1.15;;
35488;SDS011;21602;55.670;37.578;2022-09-03T01:50:48;1.67;;;1.35;;
35488;SDS011;21602;55.670;37.578;2022-09-03T01:58:53;2.63;;;1.20;;
35488;SDS011;21602;55.670;37.578;2022-09-03T02:01:33;1.67;;;1.10;;
35488;SDS011;21602;55.670;37.578;2022-09-03T02:04:12;4.10;;;1.10;;
35488;SDS011;21602;55.670;37.578;2022-09-03T02:06:42;1.80;;;1.15;;
35488;SDS011;21602;55.670;37.578;2022-09-03T02:09:09;3.00;;;1.10;;
35488;SDS011;21602;55.670;37.578;2022-09-03T02:11:35;1.70;;;1.00;;
35488;SDS011;21602;55.670;37.578;2022-09-03T02:14:01;2.05;;;1.10;;
35488;SDS011;21602;55.670;37.578;2022-09-03T02:16:29;2.10;;;1.00;;
35488;SDS011;21602;55.670;37.578;2022-09-03T02:19:02;2.08;;;1.40;;
35488;SDS011;21602;55.670;37.578;2022-09-03T02:21:32;1.40;;;1.08;;
35488;SDS011;21602;55.670;37.578;2022-09-03T02:24:04;2.15;;;1.40;;
35488;SDS011;21602;55.670;37.578;2022-09-03T02:26:32;1.70;;;1.10;;
35488;SDS011;21602;55.670;37.578;2022-09-03T02:28:58;2.40;;;1.23;;
35488;SDS011;21602;55.670;37.578;2022-09-03T02:31:26;1.38;;;1.10;;
35488;SDS011;21602;55.670;37.578;2022-09-03T02:33:53;2.85;;;1.23;;
35488;SDS011;21602;55.670;37.578;2022-09-03T02:36:24;1.38;;;1.27;;
35488;SDS011;21602;55.670;37.578;2022-09-03T02:38:55;1.45;;;1.20;;
35488;SDS011;21602;55.670;37.578;2022-09-03T02:41:20;2.30;;;1.08;;
35488;SDS011;21602;55.670;37.578;2022-09-03T02:46:40;1.85;;;1.10;;
35488;SDS011;21602;55.670;37.578;2022-09-03T02:49:10;1.45;;;1.30;;
35488;SDS011;21602;55.670;37.578;2022-09-03T02:51:38;1.45;;;1.27;;
35488;SDS011;21602;55.670;37.578;2022-09-03T02:54:06;1.95;;;1.40;;
35488;SDS011;21602;55.670;37.578;2022-09-03T02:56:32;2.15;;;1.52;;
35488;SDS011;21602;55.670;37.578;2022-09-03T02:58:58;2.28;;;1.30;;
35488;SDS011;21602;55.670;37.578;2022-09-03T03:01:24;1.27;;;1.08;;
35488;SDS011;21602;55.670;37.578;2022-09-03T03:03:51;2.05;;;1.40;;
35488;SDS011;21602;55.670;37.578;2022-09-03T03:06:17;1.67;;;1.40;;
35488;SDS011;21602;55.670;37.578;2022-09-03T03:08:45;3.88;;;1.92;;
35488;SDS011;21602;55.670;37.578;2022-09-03T03:11:11;1.48;;;1.30;;
35488;SDS011;21602;55.670;37.578;2022-09-03T03:13:40;4.75;;;1.67;;
35488;SDS011;21602;55.670;37.578;2022-09-03T03:16:05;1.90;;;1.15;;
35488;SDS011;21602;55.670;37.578;2022-09-03T03:18:31;2.17;;;1.20;;
35488;SDS011;21602;55.670;37.578;2022-09-03T03:21:02;2.80;;;1.65;;
35488;SDS011;21602;55.670;37.578;2022-09-03T03:23:30;2.67;;;1.45;;
35488;SDS011;21602;55.670;37.578;2022-09-03T03:25:59;2.67;;;1.60;;
35488;SDS011;21602;55.670;37.578;2022-09-03T03:28:29;3.47;;;1.40;;
35488;SDS011;21602;55.670;37.578;2022-09-03T03:31:08;3.03;;;1.40;;
35488;SDS011;21602;55.670;37.578;2022-09-03T03:33:36;2.47;;;1.33;;
35488;SDS011;21602;55.670;37.578;2022-09-03T03:36:06;4.53;;;1.58;;
35488;SDS011;21602;55.670;37.578;2022-09-03T03:40:57;1.83;;;1.40;;
35488;SDS011;21602;55.670;37.578;2022-09-03T03:43:23;1.60;;;1.40;;
35488;SDS011;21602;55.670;37.578;2022-09-03T03:45:57;2.15;;;1.35;;
35488;SDS011;21602;55.670;37.578;2022-09-03T03:48:24;2.15;;;1.45;;
35488;SDS011;21602;55.670;37.578;2022-09-03T03:50:51;3.40;;;1.58;;
35488;SDS011;21602;55.670;37.578;2022-09-03T03:53:17;3.03;;;1.27;;
35488;SDS011;21602;55.670;37.578;2022-09-03T03:55:52;1.88;;;1.60;;
35488;SDS011;21602;55.670;37.578;2022-09-03T03:58:19;1.40;;;1.25;;
35488;SDS011;21602;55.670;37.578;2022-09-03T04:00:44;2.67;;;1.35;;
35488;SDS011;21602;55.670;37.578;2022-09-03T04:03:12;3.05;;;1.60;;
35488;SDS011;21602;55.670;37.578;2022-09-03T04:05:37;2.90;;;2.05;;
35488;SDS011;21602;55.670;37.578;2022-09-03T04:08:03;1.20;;;1.10;;
35488;SDS011;21602;55.670;37.578;2022-09-03T04:10:29;3.13;;;1.92;;
35488;SDS011;21602;55.670;37.578;2022-09-03T04:12:55;3.88;;;1.48;;
35488;SDS011;21602;55.670;37.578;2022-09-03T04:15:21;2.53;;;1.42;;
35488;SDS011;21602;55.670;37.578;2022-09-03T04:17:46;1.70;;;1.50;;
35488;SDS011;21602;55.670;37.578;2022-09-03T04:20:12;2.25;;;1.83;;
35488;SDS011;21602;55.670;37.578;2022-09-03T04:22:38;2.33;;;1.60;;
35488;SDS011;21602;55.670;37.578;2022-09-03T04:25:04;1.85;;;1.50;;
35488;SDS011;21602;55.670;37.578;2022-09-03T04:27:30;2.65;;;1.58;;
35488;SDS011;21602;55.670;37.578;2022-09-03T04:29:55;1.60;;;1.50;;
35488;SDS011;21602;55.670;37.578;2022-09-03T04:32:21;2.90;;;1.40;;
35488;SDS011;21602;55.670;37.578;2022-09-03T04:35:06;3.05;;;1.40;;
35488;SDS011;21602;55.670;37.578;2022-09-03T04:37:32;6.53;;;1.75;;
35488;SDS011;21602;55.670;37.578;2022-09-03T04:39:57;2.38;;;1.50;;
35488;SDS011;21602;55.670;37.578;2022-09-03T04:42:23;2.38;;;1.50;;
35488;SDS011;21602;55.670;37.578;2022-09-03T04:44:49;3.10;;;1.80;;
35488;SDS011;21602;55.670;37.578;2022-09-03T04:47:15;2.80;;;1.38;;
35488;SDS011;21602;55.670;37.578;2022-09-03T04:49:40;1.70;;;1.60;;
35488;SDS011;21602;55.670;37.578;2022-09-03T04:52:06;1.73;;;1.55;;
35488;SDS011;21602;55.670;37.578;2022-09-03T04:54:32;1.48;;;1.35;;
35488;SDS011;21602;55.670;37.578;2022-09-03T04:56:57;4.47;;;2.55;;
35488;SDS011;21602;55.670;37.578;2022-09-03T04:59:23;2.97;;;1.55;;
35488;SDS011;21602;55.670;37.578;2022-09-03T05:01:49;1.75;;;1.65;;
35488;SDS011;21602;55.670;37.578;2022-09-03T05:04:16;4.45;;;1.58;;
35488;SDS011;21602;55.670;37.578;2022-09-03T05:06:42;2.40;;;1.50;;
35488;SDS011;21602;55.670;37.578;2022-09-03T05:09:09;1.75;;;1.40;;
35488;SDS011;21602;55.670;37.578;2022-09-03T05:11:35;1.85;;;1.42;;
35488;SDS011;21602;55.670;37.578;2022-09-03T05:14:01;4.38;;;2.05;;
35488;SDS011;21602;55.670;37.578;2022-09-03T05:16:30;3.05;;;1.58;;
35488;SDS011;21602;55.670;37.578;2022-09-03T05:18:57;2.63;;;1.52;;
35488;SDS011;21602;55.670;37.578;2022-09-03T05:21:25;2.95;;;1.50;;
35488;SDS011;21602;55.670;37.578;2022-09-03T05:23:52;3.07;;;1.70;;
35488;SDS011;21602;55.670;37.578;2022-09-03T05:26:20;3.55;;;1.63;;
35488;SDS011;21602;55.670;37.578;2022-09-03T05:28:53;2.28;;;1.55;;
35488;SDS011;21602;55.670;37.578;2022-09-03T05:31:20;1.73;;;1.50;;
35488;SDS011;21602;55.670;37.578;2022-09-03T05:33:48;1.83;;;1.58;;
35488;SDS011;21602;55.670;37.578;2022-09-03T05:36:17;1.92;;;1.75;;
35488;SDS011;21602;55.670;37.578;2022-09-03T05:38:44;2.40;;;1.10;;
35488;SDS011;21602;55.670;37.578;2022-09-03T05:41:12;1.92;;;1.40;;
35488;SDS011;21602;55.670;37.578;2022-09-03T05:43:40;2.97;;;1.55;;
35488;SDS011;21602;55.670;37.578;2022-09-03T05:46:07;2.58;;;1.70;;
35488;SDS011;21602;55.670;37.578;2022-09-03T05:48:36;4.72;;;1.60;;
35488;SDS011;21602;55.670;37.578;2022-09-03T05:51:21;2.88;;;1.50;;
35488;SDS011;21602;55.670;37.578;2022-09-03T05:53:47;2.88;;;1.33;;
35488;SDS011;21602;55.670;37.578;2022-09-03T05:56:17;3.10;;;1.65;;
35488;SDS011;21602;55.670;37.578;2022-09-03T05:58:48;1.90;;;1.58;;
35488;SDS011;21602;55.670;37.578;2022-09-03T06:01:19;3.03;;;2.10;;
35488;SDS011;21602;55.670;37.578;2022-09-03T06:03:46;3.17;;;1.90;;
35488;SDS011;21602;55.670;37.578;2022-09-03T06:06:19;2.58;;;2.05;;
35488;SDS011;21602;55.670;37.578;2022-09-03T06:08:52;3.03;;;1.60;;
35488;SDS011;21602;55.670;37.578;2022-09-03T06:11:27;3.80;;;1.27;;
35488;SDS011;21602;55.670;37.578;2022-09-03T06:13:54;3.22;;;1.55;;
35488;SDS011;21602;55.670;37.578;2022-09-03T06:16:24;1.67;;;1.30;;
35488;SDS011;21602;55.670;37.578;2022-09-03T06:18:49;2.80;;;1.25;;
35488;SDS011;21602;55.670;37.578;2022-09-03T06:21:15;3.40;;;1.30;;
35488;SDS011;21602;55.670;37.578;2022-09-03T06:23:41;1.08;;;0.98;;
35488;SDS011;21602;55.670;37.578;2022-09-03T06:26:08;1.40;;;1.13;;
35488;SDS011;21602;55.670;37.578;2022-09-03T06:28:37;1.10;;;0.82;;
35488;SDS011;21602;55.670;37.578;2022-09-03T06:31:08;1.10;;;1.00;;
35488;SDS011;21602;55.670;37.578;2022-09-03T06:33:36;1.85;;;0.77;;
35488;SDS011;21602;55.670;37.578;2022-09-03T06:36:03;4.10;;;0.90;;
35488;SDS011;21602;55.670;37.578;2022-09-03T06:41:00;1.27;;;0.70;;
35488;SDS011;21602;55.670;37.578;2022-09-03T06:43:30;4.55;;;0.98;;
35488;SDS011;21602;55.670;37.578;2022-09-03T06:48:23;1.10;;;0.50;;
35488;SDS011;21602;55.670;37.578;2022-09-03T06:51:09;6.35;;;1.45;;
35488;SDS011;21602;55.670;37.578;2022-09-03T06:53:37;2.15;;;0.75;;
35488;SDS011;21602;55.670;37.578;2022-09-03T06:56:06;9.35;;;1.13;;
35488;SDS011;21602;55.670;37.578;2022-09-03T06:58:36;5.10;;;0.85;;
35488;SDS011;21602;55.670;37.578;2022-09-03T07:01:10;0.60;;;0.60;;
35488;SDS011;21602;55.670;37.578;2022-09-03T07:03:37;0.73;;;0.60;;
35488;SDS011;21602;55.670;37.578;2022-09-03T07:06:05;1.42;;;0.52;;
35488;SDS011;21602;55.670;37.578;2022-09-03T07:08:33;1.35;;;0.88;;
35488;SDS011;21602;55.670;37.578;2022-09-03T07:11:06;0.73;;;0.63;;
35488;SDS011;21602;55.670;37.578;2022-09-03T07:13:35;1.15;;;0.70;;
35488;SDS011;21602;55.670;37.578;2022-09-03T07:16:02;1.38;;;0.98;;
35488;SDS011;21602;55.670;37.578;2022-09-03T07:18:30;0.90;;;0.75;;
35488;SDS011;21602;55.670;37.578;2022-09-03T07:20:57;3.00;;;0.77;;
35488;SDS011;21602;55.670;37.578;2022-09-03T07:23:24;2.30;;;1.00;;
35488;SDS011;21602;55.670;37.578;2022-09-03T07:25:57;2.60;;;0.82;;
35488;SDS011;21602;55.670;37.578;2022-09-03T07:28:25;1.60;;;0.70;;
35488;SDS011;21602;55.670;37.578;2022-09-03T07:30:52;1.58;;;1.15;;
35488;SDS011;21602;55.670;37.578;2022-09-03T07:33:19;1.20;;;0.77;;
35488;SDS011;21602;55.670;37.578;2022-09-03T07:35:48;2.38;;;0.68;;
35488;SDS011;21602;55.670;37.578;2022-09-03T07:38:17;2.28;;;0.77;;
35488;SDS011;21602;55.670;37.578;2022-09-03T07:40:55;0.65;;;0.63;;
35488;SDS011;21602;55.670;37.578;2022-09-03T07:43:23;0.73;;;0.63;;
35488;SDS011;21602;55.670;37.578;2022-09-03T07:45:49;1.92;;;0.68;;
35488;SDS011;21602;55.670;37.578;2022-09-03T07:48:15;0.85;;;0.63;;
35488;SDS011;21602;55.670;37.578;2022-09-03T07:50:42;0.93;;;0.60;;
35488;SDS011;21602;55.670;37.578;2022-09-03T07:53:09;3.42;;;0.80;;
35488;SDS011;21602;55.670;37.578;2022-09-03T07:55:34;1.73;;;0.98;;
35488;SDS011;21602;55.670;37.578;2022-09-03T07:58:00;5.10;;;1.30;;
35488;SDS011;21602;55.670;37.578;2022-09-03T08:00:26;0.55;;;0.40;;
35488;SDS011;21602;55.670;37.578;2022-09-03T08:02:52;1.55;;;1.00;;
35488;SDS011;21602;55.670;37.578;2022-09-03T08:05:18;3.50;;;0.90;;
35488;SDS011;21602;55.670;37.578;2022-09-03T08:07:45;2.20;;;0.70;;
35488;SDS011;21602;55.670;37.578;2022-09-03T08:10:13;3.30;;;0.80;;
35488;SDS011;21602;55.670;37.578;2022-09-03T08:12:40;3.13;;;0.95;;
35488;SDS011;21602;55.670;37.578;2022-09-03T08:15:06;0.98;;;0.50;;
35488;SDS011;21602;55.670;37.578;2022-09-03T08:17:36;0.45;;;0.45;;
35488;SDS011;21602;55.670;37.578;2022-09-03T08:20:02;1.17;;;0.70;;
35488;SDS011;21602;55.670;37.578;2022-09-03T08:22:29;1.33;;;0.70;;
35488;SDS011;21602;55.670;37.578;2022-09-03T08:24:54;2.55;;;0.88;;
35488;SDS011;21602;55.670;37.578;2022-09-03T08:30:13;1.23;;;0.77;;
35488;SDS011;21602;55.670;37.578;2022-09-03T08:32:39;1.33;;;0.80;;
35488;SDS011;21602;55.670;37.578;2022-09-03T08:35:06;0.90;;;0.80;;
35488;SDS011;21602;55.670;37.578;2022-09-03T08:37:33;1.83;;;0.60;;
35488;SDS011;21602;55.670;37.578;2022-09-03T08:39:59;0.50;;;0.30;;
35488;SDS011;21602;55.670;37.578;2022-09-03T08:42:40;4.25;;;0.73;;
35488;SDS011;21602;55.670;37.578;2022-09-03T08:45:33;5.32;;;1.00;;
35488;SDS011;21602;55.670;37.578;2022-09-03T08:48:04;1.00;;;0.52;;
35488;SDS011;21602;55.670;37.578;2022-09-03T08:50:38;1.13;;;0.50;;
35488;SDS011;21602;55.670;37.578;2022-09-03T08:53:10;2.30;;;0.98;;
35488;SDS011;21602;55.670;37.578;2022-09-03T08:58:19;1.00;;;0.77;;
35488;SDS011;21602;55.670;37.578;2022-09-03T09:00:58;0.63;;;0.50;;
35488;SDS011;21602;55.670;37.578;2022-09-03T09:03:36;1.30;;;0.60;;
35488;SDS011;21602;55.670;37.578;2022-09-03T09:09:10;2.92;;;0.50;;
35488;SDS011;21602;55.670;37.578;2022-09-03T09:14:28;4.18;;;0.60;;
35488;SDS011;21602;55.670;37.578;2022-09-03T09:22:58;0.95;;;0.40;;
35488;SDS011;21602;55.670;37.578;2022-09-03T09:25:25;0.52;;;0.50;;
35488;SDS011;21602;55.670;37.578;2022-09-03T09:27:58;0.40;;;0.40;;
35488;SDS011;21602;55.670;37.578;2022-09-03T09:30:28;1.83;;;0.65;;
35488;SDS011;21602;55.670;37.578;2022-09-03T09:32:55;1.63;;;0.60;;
35488;SDS011;21602;55.670;37.578;2022-09-03T09:35:22;1.85;;;0.30;;
35488;SDS011;21602;55.670;37.578;2022-09-03T09:37:55;3.33;;;0.60;;
35488;SDS011;21602;55.670;37.578;2022-09-03T09:40:45;0.68;;;0.45;;
35488;SDS011;21602;55.670;37.578;2022-09-03T09:43:12;1.27;;;0.75;;
35488;SDS011;21602;55.670;37.578;2022-09-03T09:45:45;1.75;;;0.40;;
35488;SDS011;21602;55.670;37.578;2022-09-03T09:48:29;0.75;;;0.47;;
35488;SDS011;21602;55.670;37.578;2022-09-03T09:51:09;0.70;;;0.32;;
35488;SDS011;21602;55.670;37.578;2022-09-03T09:53:37;4.03;;;0.47;;
35488;SDS011;21602;55.670;37.578;2022-09-03T09:56:05;0.40;;;0.40;;
35488;SDS011;21602;55.670;37.578;2022-09-03T09:58:31;4.05;;;0.50;;
35488;SDS011;21602;55.670;37.578;2022-09-03T10:01:02;0.90;;;0.47;;
35488;SDS011;21602;55.670;37.578;2022-09-03T10:03:40;0.40;;;0.40;;
35488;SDS011;21602;55.670;37.578;2022-09-03T10:06:15;1.20;;;0.20;;
35488;SDS011;21602;55.670;37.578;2022-09-03T10:09:06;0.50;;;0.30;;
35488;SDS011;21602;55.670;37.578;2022-09-03T10:11:36;1.10;;;0.40;;
35488;SDS011;21602;55.670;37.578;2022-09-03T10:14:08;3.33;;;0.40;;
35488;SDS011;21602;55.670;37.578;2022-09-03T10:16:41;0.60;;;0.35;;
35488;SDS011;21602;55.670;37.578;2022-09-03T10:19:19;1.27;;;0.68;;
35488;SDS011;21602;55.670;37.578;2022-09-03T10:22:02;0.60;;;0.40;;
35488;SDS011;21602;55.670;37.578;2022-09-03T10:27:09;3.25;;;0.50;;
35488;SDS011;21602;55.670;37.578;2022-09-03T10:29:38;0.50;;;0.40;;
35488;SDS011;21602;55.670;37.578;2022-09-03T10:35:22;0.57;;;0.47;;
35488;SDS011;21602;55.670;37.578;2022-09-03T10:51:35;0.77;;;0.50;;
35488;SDS011;21602;55.670;37.578;2022-09-03T11:05:41;0.40;;;0.30;;
35488;SDS011;21602;55.670;37.578;2022-09-03T11:10:47;2.85;;;0.47;;
35488;SDS011;21602;55.670;37.578;2022-09-03T11:15:53;1.40;;;0.75;;
35488;SDS011;21602;55.670;37.578;2022-09-03T11:21:04;1.90;;;1.13;;
35488;SDS011;21602;55.670;37.578;2022-09-03T11:23:40;1.50;;;0.75;;
35488;SDS011;21602;55.670;37.578;2022-09-03T11:26:10;2.97;;;0.40;;
35488;SDS011;21602;55.670;37.578;2022-09-03T11:31:17;1.02;;;0.30;;
35488;SDS011;21602;55.670;37.578;2022-09-03T11:33:50;0.52;;;0.32;;
35488;SDS011;21602;55.670;37.578;2022-09-03T11:36:28;0.40;;;0.40;;
35488;SDS011;21602;55.670;37.578;2022-09-03T11:38:59;0.60;;;0.47;;
35488;SDS011;21602;55.670;37.578;2022-09-03T11:41:34;2.17;;;0.65;;
35488;SDS011;21602;55.670;37.578;2022-09-03T11:45:10;3.20;;;0.95;;
35488;SDS011;21602;55.670;37.578;2022-09-03T11:47:11;0.68;;;0.40;;
35488;SDS011;21602;55.670;37.578;2022-09-03T11:49:44;0.73;;;0.50;;
35488;SDS011;21602;55.670;37.578;2022-09-03T11:52:12;0.38;;;0.35;;
35488;SDS011;21602;55.670;37.578;2022-09-03T11:54:42;0.43;;;0.35;;
35488;SDS011;21602;55.670;37.578;2022-09-03T11:59:41;1.27;;;0.85;;
35488;SDS011;21602;55.670;37.578;2022-09-03T12:10:21;0.20;;;0.17;;
35488;SDS011;21602;55.670;37.578;2022-09-03T12:13:13;3.65;;;0.30;;
35488;SDS011;21602;55.670;37.578;2022-09-03T12:18:29;0.95;;;0.30;;
35488;SDS011;21602;55.670;37.578;2022-09-03T12:26:07;3.67;;;0.38;;
35488;SDS011;21602;55.670;37.578;2022-09-03T12:28:39;1.95;;;0.68;;
35488;SDS011;21602;55.670;37.578;2022-09-03T12:31:09;0.90;;;0.43;;
35488;SDS011;21602;55.670;37.578;2022-09-03T12:33:46;2.05;;;0.32;;
35488;SDS011;21602;55.670;37.578;2022-09-03T12:36:13;1.02;;;0.50;;
35488;SDS011;21602;55.670;37.578;2022-09-03T12:38:42;0.75;;;0.60;;
35488;SDS011;21602;55.670;37.578;2022-09-03T12:41:28;0.28;;;0.28;;
35488;SDS011;21602;55.670;37.578;2022-09-03T12:43:58;4.18;;;0.50;;
35488;SDS011;21602;55.670;37.578;2022-09-03T12:46:26;1.20;;;0.47;;
35488;SDS011;21602;55.670;37.578;2022-09-03T12:51:21;4.13;;;0.50;;
35488;SDS011;21602;55.670;37.578;2022-09-03T12:53:47;1.33;;;0.50;;
35488;SDS011;21602;55.670;37.578;2022-09-03T12:56:15;1.08;;;0.55;;
35488;SDS011;21602;55.670;37.578;2022-09-03T12:58:50;1.10;;;0.57;;
35488;SDS011;21602;55.670;37.578;2022-09-03T13:01:31;1.92;;;0.43;;
35488;SDS011;21602;55.670;37.578;2022-09-03T13:04:04;1.55;;;0.68;;
35488;SDS011;21602;55.670;37.578;2022-09-03T13:06:46;0.90;;;0.50;;
35488;SDS011;21602;55.670;37.578;2022-09-03T13:09:18;2.05;;;0.68;;
35488;SDS011;21602;55.670;37.578;2022-09-03T13:11:47;0.93;;;0.52;;
35488;SDS011;21602;55.670;37.578;2022-09-03T13:14:15;4.72;;;0.50;;
35488;SDS011;21602;55.670;37.578;2022-09-03T13:33:49;0.68;;;0.50;;
35488;SDS011;21602;55.670;37.578;2022-09-03T13:36:19;1.80;;;0.55;;
35488;SDS011;21602;55.670;37.578;2022-09-03T13:38:50;2.67;;;0.80;;
35488;SDS011;21602;55.670;37.578;2022-09-03T13:41:31;2.88;;;1.35;;
35488;SDS011;21602;55.670;37.578;2022-09-03T13:44:03;3.95;;;0.60;;
35488;SDS011;21602;55.670;37.578;2022-09-03T13:46:39;1.55;;;0.65;;
35488;SDS011;21602;55.670;37.578;2022-09-03T13:57:54;2.03;;;0.50;;
35488;SDS011;21602;55.670;37.578;2022-09-03T14:00:39;2.58;;;0.50;;
35488;SDS011;21602;55.670;37.578;2022-09-03T14:09:19;1.08;;;0.50;;
35488;SDS011;21602;55.670;37.578;2022-09-03T14:12:03;4.55;;;0.95;;
35488;SDS011;21602;55.670;37.578;2022-09-03T14:20:22;6.25;;;0.68;;
35488;SDS011;21602;55.670;37.578;2022-09-03T14:25:26;4.78;;;0.82;;
35488;SDS011;21602;55.670;37.578;2022-09-03T14:28:12;2.17;;;0.70;;
35488;SDS011;21602;55.670;37.578;2022-09-03T14:33:42;4.95;;;1.05;;
35488;SDS011;21602;55.670;37.578;2022-09-03T14:47:42;0.85;;;0.40;;
35488;SDS011;21602;55.670;37.578;2022-09-03T14:53:20;1.45;;;0.50;;
35488;SDS011;21602;55.670;37.578;2022-09-03T15:01:51;2.72;;;0.68;;
35488;SDS011;21602;55.670;37.578;2022-09-03T15:07:47;2.28;;;1.00;;
35488;SDS011;21602;55.670;37.578;2022-09-03T15:13:17;2.55;;;1.15;;
35488;SDS011;21602;55.670;37.578;2022-09-03T15:18:31;5.10;;;1.08;;
35488;SDS011;21602;55.670;37.578;2022-09-03T15:26:41;0.80;;;0.55;;
35488;SDS011;21602;55.670;37.578;2022-09-03T15:37:29;2.22;;;0.85;;
35488;SDS011;21602;55.670;37.578;2022-09-03T15:40:04;1.95;;;1.13;;
35488;SDS011;21602;55.670;37.578;2022-09-03T15:42:35;2.53;;;1.55;;
35488;SDS011;21602;55.670;37.578;2022-09-03T15:51:04;1.25;;;0.63;;
35488;SDS011;21602;55.670;37.578;2022-09-03T15:56:49;6.57;;;3.90;;
35488;SDS011;21602;55.670;37.578;2022-09-03T15:59:19;5.00;;;3.35;;
35488;SDS011;21602;55.670;37.578;2022-09-03T16:07:25;1.42;;;0.80;;
35488;SDS011;21602;55.670;37.578;2022-09-03T16:10:18;5.63;;;1.15;;
35488;SDS011;21602;55.670;37.578;2022-09-03T16:15:40;2.60;;;1.40;;
35488;SDS011;21602;55.670;37.578;2022-09-03T16:21:08;6.03;;;4.57;;
35488;SDS011;21602;55.670;37.578;2022-09-03T16:23:48;1.67;;;1.17;;
35488;SDS011;21602;55.670;37.578;2022-09-03T16:26:24;3.35;;;1.30;;
35488;SDS011;21602;55.670;37.578;2022-09-03T16:31:32;6.30;;;1.35;;
35488;SDS011;21602;55.670;37.578;2022-09-03T17:12:55;4.65;;;2.08;;
35488;SDS011;21602;55.670;37.578;2022-09-03T17:15:44;5.60;;;2.17;;
35488;SDS011;21602;55.670;37.578;2022-09-03T17:21:04;27.45;;;16.27;;
35488;SDS011;21602;55.670;37.578;2022-09-03T17:29:54;4.83;;;3.40;;
35488;SDS011;21602;55.670;37.578;2022-09-03T17:43:58;7.65;;;3.30;;
35488;SDS011;21602;55.670;37.578;2022-09-03T17:46:59;10.77;;;5.63;;
35488;SDS011;21602;55.670;37.578;2022-09-03T17:49:32;6.47;;;2.88;;
35488;SDS011;21602;55.670;37.578;2022-09-03T17:52:29;5.93;;;2.80;;
35488;SDS011;21602;55.670;37.578;2022-09-03T17:55:12;3.22;;;2.05;;
35488;SDS011;21602;55.670;37.578;2022-09-03T17:57:47;3.47;;;2.17;;
35488;SDS011;21602;55.670;37.578;2022-09-03T18:03:26;5.10;;;2.90;;
35488;SDS011;21602;55.670;37.578;2022-09-03T18:05:59;11.43;;;3.67;;
35488;SDS011;21602;55.670;37.578;2022-09-03T18:11:37;4.10;;;2.17;;
35488;SDS011;21602;55.670;37.578;2022-09-03T18:14:11;5.38;;;2.47;;
35488;SDS011;21602;55.670;37.578;2022-09-03T18:16:52;5.22;;;2.75;;
35488;SDS011;21602;55.670;37.578;2022-09-03T18:19:38;5.68;;;2.40;;
35488;SDS011;21602;55.670;37.578;2022-09-03T18:22:35;7.15;;;2.42;;
35488;SDS011;21602;55.670;37.578;2022-09-03T18:25:28;6.05;;;2.53;;
35488;SDS011;21602;55.670;37.578;2022-09-03T18:28:14;7.28;;;3.00;;
35488;SDS011;21602;55.670;37.578;2022-09-03T18:31:11;4.85;;;2.25;;
35488;SDS011;21602;55.670;37.578;2022-09-03T18:34:02;5.72;;;2.38;;
35488;SDS011;21602;55.670;37.578;2022-09-03T18:36:50;6.00;;;2.92;;
35488;SDS011;21602;55.670;37.578;2022-09-03T18:39:35;8.77;;;3.70;;
35488;SDS011;21602;55.670;37.578;2022-09-03T18:42:29;6.78;;;2.90;;
35488;SDS011;21602;55.670;37.578;2022-09-03T18:56:58;4.20;;;2.35;;
35488;SDS011;21602;55.670;37.578;2022-09-03T19:06:34;3.40;;;2.25;;
35488;SDS011;21602;55.670;37.578;2022-09-03T19:09:06;6.45;;;3.35;;
35488;SDS011;21602;55.670;37.578;2022-09-03T19:12:11;10.25;;;2.13;;
35488;SDS011;21602;55.670;37.578;2022-09-03T19:15:11;8.52;;;2.83;;
35488;SDS011;21602;55.670;37.578;2022-09-03T19:18:08;8.50;;;2.70;;
35488;SDS011;21602;55.670;37.578;2022-09-03T19:24:08;8.07;;;3.65;;
35488;SDS011;21602;55.670;37.578;2022-09-03T19:27:18;14.60;;;8.55;;
35488;SDS011;21602;55.670;37.578;2022-09-03T19:30:07;17.05;;;5.53;;
35488;SDS011;21602;55.670;37.578;2022-09-03T19:39:17;14.60;;;4.70;;
35488;SDS011;21602;55.670;37.578;2022-09-03T19:45:49;16.00;;;5.60;;
35488;SDS011;21602;55.670;37.578;2022-09-03T19:51:29;6.28;;;3.30;;
35488;SDS011;21602;55.670;37.578;2022-09-03T19:54:21;10.50;;;3.95;;
35488;SDS011;21602;55.670;37.578;2022-09-03T19:57:10;7.78;;;3.83;;
35488;SDS011;21602;55.670;37.578;2022-09-03T19:59:58;9.88;;;4.68;;
35488;SDS011;21602;55.670;37.578;2022-09-03T20:02:45;6.20;;;3.90;;
35488;SDS011;21602;55.670;37.578;2022-09-03T20:05:31;14.30;;;5.40;;
35488;SDS011;21602;55.670;37.578;2022-09-03T20:08:16;13.93;;;4.97;;
35488;SDS011;21602;55.670;37.578;2022-09-03T20:11:02;9.52;;;4.80;;
35488;SDS011;21602;55.670;37.578;2022-09-03T20:13:33;7.97;;;4.70;;
35488;SDS011;21602;55.670;37.578;2022-09-03T20:16:25;10.75;;;5.00;;
35488;SDS011;21602;55.670;37.578;2022-09-03T20:19:17;7.50;;;4.38;;
35488;SDS011;21602;55.670;37.578;2022-09-03T20:35:06;8.77;;;5.88;;
35488;SDS011;21602;55.670;37.578;2022-09-03T20:40:52;10.48;;;5.43;;
35488;SDS011;21602;55.670;37.578;2022-09-03T20:48:53;9.82;;;5.45;;
35488;SDS011;21602;55.670;37.578;2022-09-03T20:51:26;8.90;;;6.00;;
35488;SDS011;21602;55.670;37.578;2022-09-03T20:54:13;13.23;;;6.07;;
35488;SDS011;21602;55.670;37.578;2022-09-03T21:14:06;10.02;;;5.05;;
35488;SDS011;21602;55.670;37.578;2022-09-03T21:16:44;13.50;;;5.63;;
35488;SDS011;21602;55.670;37.578;2022-09-03T21:24:59;8.88;;;4.68;;
35488;SDS011;21602;55.670;37.578;2022-09-03T21:27:31;7.72;;;5.00;;
35488;SDS011;21602;55.670;37.578;2022-09-03T21:30:06;10.45;;;4.88;;
35488;SDS011;21602;55.670;37.578;2022-09-03T21:35:58;8.00;;;4.40;;
35488;SDS011;21602;55.670;37.578;2022-09-03T21:38:32;9.93;;;4.60;;
35488;SDS011;21602;55.670;37.578;2022-09-03T21:41:13;8.50;;;4.57;;
35488;SDS011;21602;55.670;37.578;2022-09-03T21:43:49;9.93;;;5.35;;
35488;SDS011;21602;55.670;37.578;2022-09-03T21:46:26;10.93;;;5.20;;
35488;SDS011;21602;55.670;37.578;2022-09-03T21:49:05;6.85;;;4.40;;
35488;SDS011;21602;55.670;37.578;2022-09-03T21:57:29;8.07;;;4.45;;
35488;SDS011;21602;55.670;37.578;2022-09-03T22:00:27;5.95;;;3.40;;
35488;SDS011;21602;55.670;37.578;2022-09-03T22:02:59;7.10;;;4.35;;
35488;SDS011;21602;55.670;37.578;2022-09-03T22:05:31;5.15;;;3.88;;
35488;SDS011;21602;55.670;37.578;2022-09-03T22:08:17;7.90;;;4.03;;